sensor_id;sensor_type;location;lat;lon;timestamp;temperature;humidity
6865;DHT22;3471;49.678;8.388;2023-07-13T00:01:12;20.60;98.60
6865;DHT22;3471;49.678;8.388;2023-07-13T00:03:37;20.50;98.50
6865;DHT22;3471;49.678;8.388;2023-07-13T00:06:06;20.40;99.20
6865;DHT22;3471;49.678;8.388;2023-07-13T00:08:32;20.50;99.00
6865;DHT22;3471;49.678;8.388;2023-07-13T00:10:58;20.40;99.00
6865;DHT22;3471;49.678;8.388;2023-07-13T00:13:24;20.40;99.30
6865;DHT22;3471;49.678;8.388;2023-07-13T00:15:50;20.40;99.10
6865;DHT22;3471;49.678;8.388;2023-07-13T00:18:15;20.40;99.30
6865;DHT22;3471;49.678;8.388;2023-07-13T00:20:41;20.30;99.20
6865;DHT22;3471;49.678;8.388;2023-07-13T00:23:07;20.30;99.60
6865;DHT22;3471;49.678;8.388;2023-07-13T00:25:32;20.30;99.90
6865;DHT22;3471;49.678;8.388;2023-07-13T00:27:58;20.20;99.70
6865;DHT22;3471;49.678;8.388;2023-07-13T00:30:24;20.20;99.90
6865;DHT22;3471;49.678;8.388;2023-07-13T00:32:51;20.20;99.90
6865;DHT22;3471;49.678;8.388;2023-07-13T00:35:16;20.10;99.90
6865;DHT22;3471;49.678;8.388;2023-07-13T00:37:42;20.20;99.90
6865;DHT22;3471;49.678;8.388;2023-07-13T00:40:11;20.20;99.90
6865;DHT22;3471;49.678;8.388;2023-07-13T00:42:36;20.20;99.90
6865;DHT22;3471;49.678;8.388;2023-07-13T00:47:37;20.10;99.90
6865;DHT22;3471;49.678;8.388;2023-07-13T00:50:04;20.10;99.90
6865;DHT22;3471;49.678;8.388;2023-07-13T00:52:31;20.00;99.90
6865;DHT22;3471;49.678;8.388;2023-07-13T00:54:57;20.00;99.90
6865;DHT22;3471;49.678;8.388;2023-07-13T00:57:23;20.00;99.90
6865;DHT22;3471;49.678;8.388;2023-07-13T00:59:54;19.90;99.90
6865;DHT22;3471;49.678;8.388;2023-07-13T01:02:21;19.90;99.90
6865;DHT22;3471;49.678;8.388;2023-07-13T01:04:47;19.90;99.90
6865;DHT22;3471;49.678;8.388;2023-07-13T01:07:13;19.80;99.90
6865;DHT22;3471;49.678;8.388;2023-07-13T01:09:39;19.80;99.90
6865;DHT22;3471;49.678;8.388;2023-07-13T01:12:05;19.70;99.90
6865;DHT22;3471;49.678;8.388;2023-07-13T01:14:30;19.70;99.90
6865;DHT22;3471;49.678;8.388;2023-07-13T01:16:56;19.70;99.90
6865;DHT22;3471;49.678;8.388;2023-07-13T01:19:39;19.60;99.90
6865;DHT22;3471;49.678;8.388;2023-07-13T01:22:08;19.60;99.90
6865;DHT22;3471;49.678;8.388;2023-07-13T01:24:35;19.50;99.90
6865;DHT22;3471;49.678;8.388;2023-07-13T01:27:02;19.50;99.90
6865;DHT22;3471;49.678;8.388;2023-07-13T01:29:28;19.40;99.90
6865;DHT22;3471;49.678;8.388;2023-07-13T01:31:53;19.40;99.90
6865;DHT22;3471;49.678;8.388;2023-07-13T01:34:19;19.40;99.90
6865;DHT22;3471;49.678;8.388;2023-07-13T01:36:44;19.40;99.90
6865;DHT22;3471;49.678;8.388;2023-07-13T01:39:10;19.40;99.90
6865;DHT22;3471;49.678;8.388;2023-07-13T01:41:35;19.40;99.90
6865;DHT22;3471;49.678;8.388;2023-07-13T01:44:01;19.40;99.90
6865;DHT22;3471;49.678;8.388;2023-07-13T01:46:27;19.40;99.90
6865;DHT22;3471;49.678;8.388;2023-07-13T01:48:52;19.40;99.90
6865;DHT22;3471;49.678;8.388;2023-07-13T01:51:20;19.40;99.90
6865;DHT22;3471;49.678;8.388;2023-07-13T01:53:46;19.40;99.90
6865;DHT22;3471;49.678;8.388;2023-07-13T01:56:11;19.40;99.90
6865;DHT22;3471;49.678;8.388;2023-07-13T01:58:37;19.40;99.90
6865;DHT22;3471;49.678;8.388;2023-07-13T02:01:03;19.40;99.90
6865;DHT22;3471;49.678;8.388;2023-07-13T02:03:28;19.40;99.90
6865;DHT22;3471;49.678;8.388;2023-07-13T02:05:54;19.40;99.90
6865;DHT22;3471;49.678;8.388;2023-07-13T02:08:19;19.40;99.90
6865;DHT22;3471;49.678;8.388;2023-07-13T02:10:45;19.40;99.90
6865;DHT22;3471;49.678;8.388;2023-07-13T02:13:11;19.30;99.90
6865;DHT22;3471;49.678;8.388;2023-07-13T02:15:39;19.30;99.90
6865;DHT22;3471;49.678;8.388;2023-07-13T02:18:06;19.20;99.90
6865;DHT22;3471;49.678;8.388;2023-07-13T02:20:31;19.20;99.90
6865;DHT22;3471;49.678;8.388;2023-07-13T02:22:57;19.10;99.90
6865;DHT22;3471;49.678;8.388;2023-07-13T02:25:22;19.10;99.90
6865;DHT22;3471;49.678;8.388;2023-07-13T02:27:48;19.10;99.90
6865;DHT22;3471;49.678;8.388;2023-07-13T02:30:14;19.10;99.90
6865;DHT22;3471;49.678;8.388;2023-07-13T02:32:39;19.10;99.90
6865;DHT22;3471;49.678;8.388;2023-07-13T02:35:05;19.10;99.90
6865;DHT22;3471;49.678;8.388;2023-07-13T02:37:31;19.00;99.90
6865;DHT22;3471;49.678;8.388;2023-07-13T02:39:57;19.00;99.90
6865;DHT22;3471;49.678;8.388;2023-07-13T02:42:22;19.00;99.90
6865;DHT22;3471;49.678;8.388;2023-07-13T02:44:48;19.00;99.90
6865;DHT22;3471;49.678;8.388;2023-07-13T02:47:15;19.00;99.90
6865;DHT22;3471;49.678;8.388;2023-07-13T02:49:40;19.00;99.90
6865;DHT22;3471;49.678;8.388;2023-07-13T02:52:06;19.00;99.90
6865;DHT22;3471;49.678;8.388;2023-07-13T02:54:32;19.00;99.90
6865;DHT22;3471;49.678;8.388;2023-07-13T02:56:57;19.10;99.90
6865;DHT22;3471;49.678;8.388;2023-07-13T02:59:23;19.00;99.90
6865;DHT22;3471;49.678;8.388;2023-07-13T03:08:33;19.00;99.90
6865;DHT22;3471;49.678;8.388;2023-07-13T03:11:04;19.00;99.90
6865;DHT22;3471;49.678;8.388;2023-07-13T03:13:30;19.00;99.90
6865;DHT22;3471;49.678;8.388;2023-07-13T03:15:56;19.00;99.90
6865;DHT22;3471;49.678;8.388;2023-07-13T03:18:22;19.00;99.90
6865;DHT22;3471;49.678;8.388;2023-07-13T03:20:50;18.90;99.90
6865;DHT22;3471;49.678;8.388;2023-07-13T03:23:16;18.90;99.90
6865;DHT22;3471;49.678;8.388;2023-07-13T03:25:42;18.90;99.90
6865;DHT22;3471;49.678;8.388;2023-07-13T03:28:08;18.90;99.90
6865;DHT22;3471;49.678;8.388;2023-07-13T03:30:33;18.80;99.90
6865;DHT22;3471;49.678;8.388;2023-07-13T03:32:59;18.80;99.90
6865;DHT22;3471;49.678;8.388;2023-07-13T03:35:24;18.80;99.90
6865;DHT22;3471;49.678;8.388;2023-07-13T03:37:50;18.70;99.90
6865;DHT22;3471;49.678;8.388;2023-07-13T03:40:16;18.70;99.90
6865;DHT22;3471;49.678;8.388;2023-07-13T03:42:42;18.60;99.90
6865;DHT22;3471;49.678;8.388;2023-07-13T03:45:08;18.50;99.90
6865;DHT22;3471;49.678;8.388;2023-07-13T03:47:33;18.50;99.90
6865;DHT22;3471;49.678;8.388;2023-07-13T03:49:59;18.50;99.90
6865;DHT22;3471;49.678;8.388;2023-07-13T03:52:25;18.40;99.90
6865;DHT22;3471;49.678;8.388;2023-07-13T03:54:50;18.40;99.90
6865;DHT22;3471;49.678;8.388;2023-07-13T03:57:16;18.40;99.90
6865;DHT22;3471;49.678;8.388;2023-07-13T03:59:41;18.30;99.90
6865;DHT22;3471;49.678;8.388;2023-07-13T04:02:07;18.40;99.90
6865;DHT22;3471;49.678;8.388;2023-07-13T04:04:33;18.40;99.90
6865;DHT22;3471;49.678;8.388;2023-07-13T04:06:59;18.40;99.90
6865;DHT22;3471;49.678;8.388;2023-07-13T04:09:25;18.40;99.90
6865;DHT22;3471;49.678;8.388;2023-07-13T04:11:50;18.40;99.90
6865;DHT22;3471;49.678;8.388;2023-07-13T04:14:16;18.40;99.90
6865;DHT22;3471;49.678;8.388;2023-07-13T04:16:42;18.40;99.90
6865;DHT22;3471;49.678;8.388;2023-07-13T04:19:09;18.50;99.90
6865;DHT22;3471;49.678;8.388;2023-07-13T04:21:36;18.40;99.90
6865;DHT22;3471;49.678;8.388;2023-07-13T04:24:02;18.40;99.90
6865;DHT22;3471;49.678;8.388;2023-07-13T04:26:28;18.40;99.90
6865;DHT22;3471;49.678;8.388;2023-07-13T04:28:55;18.50;99.90
6865;DHT22;3471;49.678;8.388;2023-07-13T04:31:21;18.50;99.90
6865;DHT22;3471;49.678;8.388;2023-07-13T04:33:46;18.50;99.90
6865;DHT22;3471;49.678;8.388;2023-07-13T04:36:12;18.60;99.90
6865;DHT22;3471;49.678;8.388;2023-07-13T04:38:38;18.60;99.90
6865;DHT22;3471;49.678;8.388;2023-07-13T04:41:05;18.70;99.90
6865;DHT22;3471;49.678;8.388;2023-07-13T04:43:32;18.70;99.90
6865;DHT22;3471;49.678;8.388;2023-07-13T04:46:07;18.80;99.90
6865;DHT22;3471;49.678;8.388;2023-07-13T04:48:33;18.90;99.90
6865;DHT22;3471;49.678;8.388;2023-07-13T04:50:59;19.00;99.90
6865;DHT22;3471;49.678;8.388;2023-07-13T04:53:26;19.10;99.90
6865;DHT22;3471;49.678;8.388;2023-07-13T04:55:52;19.10;99.90
6865;DHT22;3471;49.678;8.388;2023-07-13T04:58:17;19.30;99.90
6865;DHT22;3471;49.678;8.388;2023-07-13T05:00:43;19.40;99.90
6865;DHT22;3471;49.678;8.388;2023-07-13T05:03:09;19.50;99.90
6865;DHT22;3471;49.678;8.388;2023-07-13T05:05:34;19.60;99.90
6865;DHT22;3471;49.678;8.388;2023-07-13T05:08:00;19.80;99.90
6865;DHT22;3471;49.678;8.388;2023-07-13T05:10:26;19.90;99.90
6865;DHT22;3471;49.678;8.388;2023-07-13T05:12:51;20.00;99.90
6865;DHT22;3471;49.678;8.388;2023-07-13T05:15:18;20.10;99.90
6865;DHT22;3471;49.678;8.388;2023-07-13T05:17:47;20.20;99.90
6865;DHT22;3471;49.678;8.388;2023-07-13T05:20:13;20.20;99.90
6865;DHT22;3471;49.678;8.388;2023-07-13T05:22:38;20.20;99.90
6865;DHT22;3471;49.678;8.388;2023-07-13T05:25:06;20.10;99.90
6865;DHT22;3471;49.678;8.388;2023-07-13T05:27:32;20.10;99.90
6865;DHT22;3471;49.678;8.388;2023-07-13T05:29:57;20.00;99.90
6865;DHT22;3471;49.678;8.388;2023-07-13T05:32:23;20.00;99.90
6865;DHT22;3471;49.678;8.388;2023-07-13T05:34:49;20.00;99.90
6865;DHT22;3471;49.678;8.388;2023-07-13T05:37:14;20.10;99.90
6865;DHT22;3471;49.678;8.388;2023-07-13T05:39:40;20.10;99.90
6865;DHT22;3471;49.678;8.388;2023-07-13T05:42:06;20.20;99.90
6865;DHT22;3471;49.678;8.388;2023-07-13T05:44:31;20.30;99.90
6865;DHT22;3471;49.678;8.388;2023-07-13T05:46:57;20.30;99.90
6865;DHT22;3471;49.678;8.388;2023-07-13T05:49:23;20.40;99.90
6865;DHT22;3471;49.678;8.388;2023-07-13T05:51:48;20.50;99.90
6865;DHT22;3471;49.678;8.388;2023-07-13T05:54:14;20.50;99.90
6865;DHT22;3471;49.678;8.388;2023-07-13T05:56:40;20.60;99.90
6865;DHT22;3471;49.678;8.388;2023-07-13T05:59:05;20.70;99.90
6865;DHT22;3471;49.678;8.388;2023-07-13T06:01:31;20.80;99.90
6865;DHT22;3471;49.678;8.388;2023-07-13T06:03:57;20.80;99.90
6865;DHT22;3471;49.678;8.388;2023-07-13T06:06:22;20.90;99.90
6865;DHT22;3471;49.678;8.388;2023-07-13T06:08:48;21.00;99.90
6865;DHT22;3471;49.678;8.388;2023-07-13T06:11:22;21.10;99.90
6865;DHT22;3471;49.678;8.388;2023-07-13T06:13:48;21.20;99.90
6865;DHT22;3471;49.678;8.388;2023-07-13T06:16:15;21.30;99.90
6865;DHT22;3471;49.678;8.388;2023-07-13T06:18:41;21.40;99.90
6865;DHT22;3471;49.678;8.388;2023-07-13T06:21:18;21.50;99.90
6865;DHT22;3471;49.678;8.388;2023-07-13T06:23:45;21.60;99.90
6865;DHT22;3471;49.678;8.388;2023-07-13T06:26:11;21.60;99.90
6865;DHT22;3471;49.678;8.388;2023-07-13T06:28:37;21.70;99.90
6865;DHT22;3471;49.678;8.388;2023-07-13T06:31:06;21.70;99.90
6865;DHT22;3471;49.678;8.388;2023-07-13T06:33:32;21.80;99.90
6865;DHT22;3471;49.678;8.388;2023-07-13T06:35:58;22.00;99.90
6865;DHT22;3471;49.678;8.388;2023-07-13T06:38:24;22.10;99.90
6865;DHT22;3471;49.678;8.388;2023-07-13T06:40:49;22.20;99.90
6865;DHT22;3471;49.678;8.388;2023-07-13T06:43:15;22.30;99.90
6865;DHT22;3471;49.678;8.388;2023-07-13T06:45:43;22.40;99.90
6865;DHT22;3471;49.678;8.388;2023-07-13T06:48:11;22.50;99.90
6865;DHT22;3471;49.678;8.388;2023-07-13T06:50:37;22.70;99.90
6865;DHT22;3471;49.678;8.388;2023-07-13T06:53:03;22.70;99.90
6865;DHT22;3471;49.678;8.388;2023-07-13T06:55:28;22.80;99.90
6865;DHT22;3471;49.678;8.388;2023-07-13T06:57:54;22.90;99.90
6865;DHT22;3471;49.678;8.388;2023-07-13T07:00:19;23.00;99.90
6865;DHT22;3471;49.678;8.388;2023-07-13T07:02:46;23.20;99.90
6865;DHT22;3471;49.678;8.388;2023-07-13T07:05:11;23.20;99.90
6865;DHT22;3471;49.678;8.388;2023-07-13T07:07:37;23.40;99.90
6865;DHT22;3471;49.678;8.388;2023-07-13T07:10:02;23.50;99.90
6865;DHT22;3471;49.678;8.388;2023-07-13T07:12:28;23.50;99.90
6865;DHT22;3471;49.678;8.388;2023-07-13T07:14:54;23.50;99.90
6865;DHT22;3471;49.678;8.388;2023-07-13T07:17:19;23.50;99.90
6865;DHT22;3471;49.678;8.388;2023-07-13T07:19:45;23.50;99.90
6865;DHT22;3471;49.678;8.388;2023-07-13T07:22:11;23.50;99.90
6865;DHT22;3471;49.678;8.388;2023-07-13T07:24:37;23.40;99.90
6865;DHT22;3471;49.678;8.388;2023-07-13T07:27:02;23.40;99.90
6865;DHT22;3471;49.678;8.388;2023-07-13T07:29:28;23.40;99.90
6865;DHT22;3471;49.678;8.388;2023-07-13T07:31:54;23.40;99.90
6865;DHT22;3471;49.678;8.388;2023-07-13T07:34:19;23.40;99.90
6865;DHT22;3471;49.678;8.388;2023-07-13T07:36:45;23.30;99.90
6865;DHT22;3471;49.678;8.388;2023-07-13T07:39:11;23.30;99.90
6865;DHT22;3471;49.678;8.388;2023-07-13T07:41:37;23.20;99.90
6865;DHT22;3471;49.678;8.388;2023-07-13T07:44:02;23.20;99.90
6865;DHT22;3471;49.678;8.388;2023-07-13T07:46:28;23.20;99.90
6865;DHT22;3471;49.678;8.388;2023-07-13T07:48:55;23.20;99.90
6865;DHT22;3471;49.678;8.388;2023-07-13T07:51:21;23.20;99.90
6865;DHT22;3471;49.678;8.388;2023-07-13T07:53:47;23.40;99.90
6865;DHT22;3471;49.678;8.388;2023-07-13T07:56:13;23.40;99.70
6865;DHT22;3471;49.678;8.388;2023-07-13T07:58:39;23.60;99.30
6865;DHT22;3471;49.678;8.388;2023-07-13T08:01:05;23.70;99.10
6865;DHT22;3471;49.678;8.388;2023-07-13T08:03:31;23.80;99.20
6865;DHT22;3471;49.678;8.388;2023-07-13T08:05:57;23.80;98.80
6865;DHT22;3471;49.678;8.388;2023-07-13T08:08:22;23.90;98.80
6865;DHT22;3471;49.678;8.388;2023-07-13T08:10:48;24.00;99.00
6865;DHT22;3471;49.678;8.388;2023-07-13T08:13:13;24.30;99.50
6865;DHT22;3471;49.678;8.388;2023-07-13T08:15:39;24.40;98.50
6865;DHT22;3471;49.678;8.388;2023-07-13T08:18:05;24.60;98.50
6865;DHT22;3471;49.678;8.388;2023-07-13T08:20:32;24.80;98.20
6865;DHT22;3471;49.678;8.388;2023-07-13T08:22:58;24.80;97.90
6865;DHT22;3471;49.678;8.388;2023-07-13T08:25:24;24.90;97.40
6865;DHT22;3471;49.678;8.388;2023-07-13T08:27:50;25.00;97.20
6865;DHT22;3471;49.678;8.388;2023-07-13T08:30:15;25.20;97.90
6865;DHT22;3471;49.678;8.388;2023-07-13T08:32:41;25.20;97.20
6865;DHT22;3471;49.678;8.388;2023-07-13T08:35:06;25.30;96.40
6865;DHT22;3471;49.678;8.388;2023-07-13T08:37:32;25.50;96.30
6865;DHT22;3471;49.678;8.388;2023-07-13T08:39:58;25.50;96.50
6865;DHT22;3471;49.678;8.388;2023-07-13T08:42:44;25.60;95.70
6865;DHT22;3471;49.678;8.388;2023-07-13T08:45:22;25.80;96.50
6865;DHT22;3471;49.678;8.388;2023-07-13T08:47:55;25.90;96.20
6865;DHT22;3471;49.678;8.388;2023-07-13T08:50:27;26.00;95.70
6865;DHT22;3471;49.678;8.388;2023-07-13T08:52:55;26.10;96.20
6865;DHT22;3471;49.678;8.388;2023-07-13T08:55:24;26.10;95.10
6865;DHT22;3471;49.678;8.388;2023-07-13T08:58:05;26.10;94.80
6865;DHT22;3471;49.678;8.388;2023-07-13T09:01:19;26.10;94.50
6865;DHT22;3471;49.678;8.388;2023-07-13T09:04:14;26.20;94.50
6865;DHT22;3471;49.678;8.388;2023-07-13T09:15:37;26.70;93.70
6865;DHT22;3471;49.678;8.388;2023-07-13T09:20:38;26.80;92.30
6865;DHT22;3471;49.678;8.388;2023-07-13T09:23:11;26.80;92.90
6865;DHT22;3471;49.678;8.388;2023-07-13T09:25:38;26.90;92.70
6865;DHT22;3471;49.678;8.388;2023-07-13T09:28:29;27.00;92.60
6865;DHT22;3471;49.678;8.388;2023-07-13T09:33:40;27.10;91.50
6865;DHT22;3471;49.678;8.388;2023-07-13T09:36:22;27.20;92.70
6865;DHT22;3471;49.678;8.388;2023-07-13T09:39:04;27.20;92.70
6865;DHT22;3471;49.678;8.388;2023-07-13T09:44:31;27.00;90.70
6865;DHT22;3471;49.678;8.388;2023-07-13T09:46:59;26.90;90.40
6865;DHT22;3471;49.678;8.388;2023-07-13T09:49:26;26.90;90.50
6865;DHT22;3471;49.678;8.388;2023-07-13T09:52:02;27.00;90.90
6865;DHT22;3471;49.678;8.388;2023-07-13T09:54:28;27.20;91.80
6865;DHT22;3471;49.678;8.388;2023-07-13T09:56:58;27.30;90.50
6865;DHT22;3471;49.678;8.388;2023-07-13T09:59:33;27.40;90.90
6865;DHT22;3471;49.678;8.388;2023-07-13T10:02:00;27.30;90.60
6865;DHT22;3471;49.678;8.388;2023-07-13T10:04:33;27.20;90.30
6865;DHT22;3471;49.678;8.388;2023-07-13T10:07:08;27.00;89.80
6865;DHT22;3471;49.678;8.388;2023-07-13T10:09:34;27.00;89.80
6865;DHT22;3471;49.678;8.388;2023-07-13T10:11:59;26.90;90.70
6865;DHT22;3471;49.678;8.388;2023-07-13T10:14:25;26.90;90.20
6865;DHT22;3471;49.678;8.388;2023-07-13T10:17:00;27.00;91.50
6865;DHT22;3471;49.678;8.388;2023-07-13T10:19:31;27.10;90.90
6865;DHT22;3471;49.678;8.388;2023-07-13T10:24:40;27.30;90.80
6865;DHT22;3471;49.678;8.388;2023-07-13T10:32:26;27.20;90.30
6865;DHT22;3471;49.678;8.388;2023-07-13T10:34:52;27.30;89.50
6865;DHT22;3471;49.678;8.388;2023-07-13T10:37:31;27.20;89.60
6865;DHT22;3471;49.678;8.388;2023-07-13T10:40:00;27.20;88.20
6865;DHT22;3471;49.678;8.388;2023-07-13T10:42:40;27.00;88.50
6865;DHT22;3471;49.678;8.388;2023-07-13T10:45:15;26.80;88.00
6865;DHT22;3471;49.678;8.388;2023-07-13T10:47:42;26.70;89.00
6865;DHT22;3471;49.678;8.388;2023-07-13T10:50:18;26.80;89.60
6865;DHT22;3471;49.678;8.388;2023-07-13T10:52:55;26.90;89.90
6865;DHT22;3471;49.678;8.388;2023-07-13T10:55:40;26.90;89.10
6865;DHT22;3471;49.678;8.388;2023-07-13T10:58:13;26.80;89.20
6865;DHT22;3471;49.678;8.388;2023-07-13T11:03:27;26.70;89.10
6865;DHT22;3471;49.678;8.388;2023-07-13T11:06:07;26.70;89.30
6865;DHT22;3471;49.678;8.388;2023-07-13T11:08:51;26.70;90.50
6865;DHT22;3471;49.678;8.388;2023-07-13T11:18:50;27.30;84.40
6865;DHT22;3471;49.678;8.388;2023-07-13T11:21:36;27.20;84.50
6865;DHT22;3471;49.678;8.388;2023-07-13T11:24:21;27.00;85.70
6865;DHT22;3471;49.678;8.388;2023-07-13T11:31:58;27.20;86.80
6865;DHT22;3471;49.678;8.388;2023-07-13T11:34:29;27.10;86.30
6865;DHT22;3471;49.678;8.388;2023-07-13T11:36:56;27.10;86.50
6865;DHT22;3471;49.678;8.388;2023-07-13T11:42:00;27.20;88.60
6865;DHT22;3471;49.678;8.388;2023-07-13T11:44:29;27.50;90.60
6865;DHT22;3471;49.678;8.388;2023-07-13T11:47:10;27.90;86.30
6865;DHT22;3471;49.678;8.388;2023-07-13T11:49:48;28.20;87.10
6865;DHT22;3471;49.678;8.388;2023-07-13T11:52:31;28.30;87.10
6865;DHT22;3471;49.678;8.388;2023-07-13T11:55:00;28.20;86.00
6865;DHT22;3471;49.678;8.388;2023-07-13T11:57:32;28.00;85.00
6865;DHT22;3471;49.678;8.388;2023-07-13T12:00:03;27.70;84.60
6865;DHT22;3471;49.678;8.388;2023-07-13T12:02:40;27.40;84.60
6865;DHT22;3471;49.678;8.388;2023-07-13T12:05:11;27.20;86.60
6865;DHT22;3471;49.678;8.388;2023-07-13T12:07:38;27.20;88.10
6865;DHT22;3471;49.678;8.388;2023-07-13T12:10:23;27.20;86.80
6865;DHT22;3471;49.678;8.388;2023-07-13T12:12:56;27.20;86.90
6865;DHT22;3471;49.678;8.388;2023-07-13T12:15:22;27.20;85.00
6865;DHT22;3471;49.678;8.388;2023-07-13T12:17:49;27.20;88.60
6865;DHT22;3471;49.678;8.388;2023-07-13T12:20:23;27.40;89.10
6865;DHT22;3471;49.678;8.388;2023-07-13T12:22:50;27.60;85.30
6865;DHT22;3471;49.678;8.388;2023-07-13T12:25:16;27.70;85.20
6865;DHT22;3471;49.678;8.388;2023-07-13T12:27:47;27.80;83.20
6865;DHT22;3471;49.678;8.388;2023-07-13T12:30:30;27.90;82.90
6865;DHT22;3471;49.678;8.388;2023-07-13T12:33:07;27.90;82.40
6865;DHT22;3471;49.678;8.388;2023-07-13T12:35:50;27.90;80.00
6865;DHT22;3471;49.678;8.388;2023-07-13T12:38:17;27.90;81.00
6865;DHT22;3471;49.678;8.388;2023-07-13T12:40:43;27.90;81.60
6865;DHT22;3471;49.678;8.388;2023-07-13T12:43:13;27.90;83.70
6865;DHT22;3471;49.678;8.388;2023-07-13T12:46:04;27.70;82.30
6865;DHT22;3471;49.678;8.388;2023-07-13T12:48:37;27.60;83.60
6865;DHT22;3471;49.678;8.388;2023-07-13T12:51:03;27.40;83.90
6865;DHT22;3471;49.678;8.388;2023-07-13T12:53:30;27.20;83.80
6865;DHT22;3471;49.678;8.388;2023-07-13T12:56:02;27.10;85.30
6865;DHT22;3471;49.678;8.388;2023-07-13T12:58:31;27.00;85.70
6865;DHT22;3471;49.678;8.388;2023-07-13T13:00:59;27.00;85.80
6865;DHT22;3471;49.678;8.388;2023-07-13T13:03:37;27.00;86.30
6865;DHT22;3471;49.678;8.388;2023-07-13T13:06:17;27.10;85.40
6865;DHT22;3471;49.678;8.388;2023-07-13T13:08:50;27.20;85.00
6865;DHT22;3471;49.678;8.388;2023-07-13T13:11:17;27.20;83.80
6865;DHT22;3471;49.678;8.388;2023-07-13T13:13:44;27.40;84.90
6865;DHT22;3471;49.678;8.388;2023-07-13T13:16:29;27.50;83.30
6865;DHT22;3471;49.678;8.388;2023-07-13T13:18:58;27.50;84.20
6865;DHT22;3471;49.678;8.388;2023-07-13T13:21:25;27.40;84.00
6865;DHT22;3471;49.678;8.388;2023-07-13T13:23:51;27.40;86.10
6865;DHT22;3471;49.678;8.388;2023-07-13T13:26:19;27.20;85.00
6865;DHT22;3471;49.678;8.388;2023-07-13T13:28:45;27.00;85.40
6865;DHT22;3471;49.678;8.388;2023-07-13T13:31:13;26.80;84.70
6865;DHT22;3471;49.678;8.388;2023-07-13T13:33:40;26.70;86.00
6865;DHT22;3471;49.678;8.388;2023-07-13T13:36:19;26.50;87.30
6865;DHT22;3471;49.678;8.388;2023-07-13T13:38:46;26.40;87.50
6865;DHT22;3471;49.678;8.388;2023-07-13T13:41:13;26.30;87.70
6865;DHT22;3471;49.678;8.388;2023-07-13T13:43:40;26.30;88.50
6865;DHT22;3471;49.678;8.388;2023-07-13T13:46:17;26.30;86.90
6865;DHT22;3471;49.678;8.388;2023-07-13T13:48:43;26.50;87.10
6865;DHT22;3471;49.678;8.388;2023-07-13T13:53:42;26.90;87.00
6865;DHT22;3471;49.678;8.388;2023-07-13T13:56:08;27.20;86.30
6865;DHT22;3471;49.678;8.388;2023-07-13T13:58:33;27.50;88.50
6865;DHT22;3471;49.678;8.388;2023-07-13T14:00:59;27.70;86.60
6865;DHT22;3471;49.678;8.388;2023-07-13T14:03:26;27.80;85.40
6865;DHT22;3471;49.678;8.388;2023-07-13T14:05:53;27.90;85.20
6865;DHT22;3471;49.678;8.388;2023-07-13T14:08:21;27.80;84.80
6865;DHT22;3471;49.678;8.388;2023-07-13T14:10:50;27.60;84.40
6865;DHT22;3471;49.678;8.388;2023-07-13T14:13:24;27.50;85.00
6865;DHT22;3471;49.678;8.388;2023-07-13T14:15:52;27.40;86.00
6865;DHT22;3471;49.678;8.388;2023-07-13T14:18:18;27.30;84.50
6865;DHT22;3471;49.678;8.388;2023-07-13T14:20:48;27.20;85.20
6865;DHT22;3471;49.678;8.388;2023-07-13T14:23:15;27.30;86.10
6865;DHT22;3471;49.678;8.388;2023-07-13T14:25:42;27.40;85.60
6865;DHT22;3471;49.678;8.388;2023-07-13T14:28:25;27.40;84.50
6865;DHT22;3471;49.678;8.388;2023-07-13T14:30:52;27.40;85.40
6865;DHT22;3471;49.678;8.388;2023-07-13T14:33:18;27.50;83.50
6865;DHT22;3471;49.678;8.388;2023-07-13T14:35:44;27.60;85.40
6865;DHT22;3471;49.678;8.388;2023-07-13T14:38:17;27.80;85.50
6865;DHT22;3471;49.678;8.388;2023-07-13T14:40:43;27.90;85.00
6865;DHT22;3471;49.678;8.388;2023-07-13T14:43:10;27.90;84.40
6865;DHT22;3471;49.678;8.388;2023-07-13T14:45:41;27.80;82.10
6865;DHT22;3471;49.678;8.388;2023-07-13T14:48:22;27.60;81.80
6865;DHT22;3471;49.678;8.388;2023-07-13T14:50:56;27.30;82.00
6865;DHT22;3471;49.678;8.388;2023-07-13T14:53:27;27.10;83.50
6865;DHT22;3471;49.678;8.388;2023-07-13T14:55:55;26.90;83.40
6865;DHT22;3471;49.678;8.388;2023-07-13T14:58:21;26.80;84.50
6865;DHT22;3471;49.678;8.388;2023-07-13T15:00:47;26.70;84.80
6865;DHT22;3471;49.678;8.388;2023-07-13T15:03:21;26.70;86.60
6865;DHT22;3471;49.678;8.388;2023-07-13T15:05:48;26.70;84.20
6865;DHT22;3471;49.678;8.388;2023-07-13T15:08:15;26.60;83.40
6865;DHT22;3471;49.678;8.388;2023-07-13T15:10:41;26.60;83.50
6865;DHT22;3471;49.678;8.388;2023-07-13T15:13:20;26.60;84.40
6865;DHT22;3471;49.678;8.388;2023-07-13T15:15:49;26.70;83.80
6865;DHT22;3471;49.678;8.388;2023-07-13T15:18:17;26.70;83.20
6865;DHT22;3471;49.678;8.388;2023-07-13T15:20:44;26.90;82.20
6865;DHT22;3471;49.678;8.388;2023-07-13T15:23:11;27.10;81.90
6865;DHT22;3471;49.678;8.388;2023-07-13T15:25:37;27.50;81.80
6865;DHT22;3471;49.678;8.388;2023-07-13T15:28:03;27.90;83.10
6865;DHT22;3471;49.678;8.388;2023-07-13T15:30:31;28.30;80.70
6865;DHT22;3471;49.678;8.388;2023-07-13T15:33:05;28.50;80.20
6865;DHT22;3471;49.678;8.388;2023-07-13T15:35:36;28.70;80.20
6865;DHT22;3471;49.678;8.388;2023-07-13T15:38:05;29.10;78.90
6865;DHT22;3471;49.678;8.388;2023-07-13T15:40:35;29.20;75.20
6865;DHT22;3471;49.678;8.388;2023-07-13T15:43:00;29.20;77.70
6865;DHT22;3471;49.678;8.388;2023-07-13T15:45:26;29.20;78.60
6865;DHT22;3471;49.678;8.388;2023-07-13T15:47:51;29.10;80.60
6865;DHT22;3471;49.678;8.388;2023-07-13T15:50:20;29.20;78.50
6865;DHT22;3471;49.678;8.388;2023-07-13T15:52:49;29.60;79.10
6865;DHT22;3471;49.678;8.388;2023-07-13T15:55:15;30.20;78.30
6865;DHT22;3471;49.678;8.388;2023-07-13T15:57:47;30.70;77.50
6865;DHT22;3471;49.678;8.388;2023-07-13T16:00:23;31.20;74.10
6865;DHT22;3471;49.678;8.388;2023-07-13T16:02:50;31.20;73.30
6865;DHT22;3471;49.678;8.388;2023-07-13T16:05:18;31.50;72.40
6865;DHT22;3471;49.678;8.388;2023-07-13T16:07:45;31.60;72.70
6865;DHT22;3471;49.678;8.388;2023-07-13T16:10:17;31.30;73.50
6865;DHT22;3471;49.678;8.388;2023-07-13T16:12:43;31.00;72.40
6865;DHT22;3471;49.678;8.388;2023-07-13T16:15:16;30.60;72.40
6865;DHT22;3471;49.678;8.388;2023-07-13T16:17:44;30.20;74.90
6865;DHT22;3471;49.678;8.388;2023-07-13T16:20:10;29.70;73.70
6865;DHT22;3471;49.678;8.388;2023-07-13T16:22:37;29.60;76.00
6865;DHT22;3471;49.678;8.388;2023-07-13T16:27:44;29.40;75.70
6865;DHT22;3471;49.678;8.388;2023-07-13T16:32:39;29.00;75.60
6865;DHT22;3471;49.678;8.388;2023-07-13T16:35:05;29.00;78.40
6865;DHT22;3471;49.678;8.388;2023-07-13T16:37:31;29.10;78.40
6865;DHT22;3471;49.678;8.388;2023-07-13T16:39:58;29.10;79.50
6865;DHT22;3471;49.678;8.388;2023-07-13T16:42:26;29.10;76.10
6865;DHT22;3471;49.678;8.388;2023-07-13T16:44:51;29.00;75.00
6865;DHT22;3471;49.678;8.388;2023-07-13T16:47:18;28.80;74.10
6865;DHT22;3471;49.678;8.388;2023-07-13T16:49:45;28.50;75.20
6865;DHT22;3471;49.678;8.388;2023-07-13T16:52:13;28.30;76.20
6865;DHT22;3471;49.678;8.388;2023-07-13T16:54:39;28.10;74.30
6865;DHT22;3471;49.678;8.388;2023-07-13T16:57:34;27.90;77.70
6865;DHT22;3471;49.678;8.388;2023-07-13T16:59:59;27.80;77.50
6865;DHT22;3471;49.678;8.388;2023-07-13T17:02:36;27.70;78.70
6865;DHT22;3471;49.678;8.388;2023-07-13T17:05:04;27.60;78.60
6865;DHT22;3471;49.678;8.388;2023-07-13T17:07:31;27.60;77.60
6865;DHT22;3471;49.678;8.388;2023-07-13T17:09:57;27.50;76.80